Terminal Aerodrome Forecast
Issued by NWS

Home | Current Version | Previous Version | Text Only | Print | Product List | Glossary Off
Versions: 1 2 3 4 5 6 7 8 9 10 11 12 13 14 15 16 17 18 19 20 21 22 23

909
FTUS43 KGRB 210516 AAC
TAFCWA
TAF AMD
KCWA 210516Z 2105/2124 32003KT 1SM BR SCT005 BKN050
      TEMPO 2105/2109 1/4SM FG VV003
     FM210900 03004KT 1/2SM FG BKN003
      TEMPO 2109/2113 1SM BR BKN003
     FM211400 11007KT P6SM BKN012
     FM211900 12007KT P6SM SCT030=

USA.gov is the U.S. government's official web portal to all federal, state and local government web resources and services.